createdAt,value
2018-10-11T00:00:01.765Z,16.84
2018-10-11T00:00:14.075Z,16.84
2018-10-11T00:00:25.824Z,16.85
2018-10-11T00:00:37.570Z,16.85
2018-10-11T00:00:49.327Z,16.84
2018-10-11T00:01:01.079Z,16.83
2018-10-11T00:01:12.817Z,16.85
2018-10-11T00:01:24.575Z,16.85
2018-10-11T00:01:36.352Z,16.85
2018-10-11T00:01:48.151Z,16.84
2018-10-11T00:01:59.906Z,16.84
2018-10-11T00:02:11.670Z,16.85
2018-10-11T00:02:23.432Z,16.85
2018-10-11T00:02:35.183Z,16.85
2018-10-11T00:02:46.940Z,16.84
2018-10-11T00:02:58.686Z,16.85
2018-10-11T00:03:10.448Z,16.84
2018-10-11T00:03:22.458Z,16.86
2018-10-11T00:03:34.212Z,16.84
2018-10-11T00:03:45.970Z,16.83
2018-10-11T00:03:57.726Z,16.84
2018-10-11T00:04:09.494Z,16.84
2018-10-11T00:04:21.237Z,16.84
2018-10-11T00:04:33.016Z,16.84
2018-10-11T00:04:44.777Z,16.84
2018-10-11T00:04:56.751Z,16.84
2018-10-11T00:05:08.516Z,16.84
2018-10-11T00:05:20.276Z,16.84
2018-10-11T00:05:32.036Z,16.84
2018-10-11T00:05:43.792Z,16.84
2018-10-11T00:05:55.585Z,16.83
2018-10-11T00:06:07.348Z,16.83
2018-10-11T00:06:19.107Z,16.83
2018-10-11T00:06:30.862Z,16.84
2018-10-11T00:06:42.603Z,16.84
2018-10-11T00:06:54.380Z,16.84
2018-10-11T00:07:06.155Z,16.84
2018-10-11T00:07:17.912Z,16.84
2018-10-11T00:07:29.668Z,16.85
2018-10-11T00:07:41.424Z,16.84
2018-10-11T00:07:53.196Z,16.84
2018-10-11T00:08:04.956Z,16.83
2018-10-11T00:08:16.714Z,16.84
2018-10-11T00:08:28.474Z,16.84
2018-10-11T00:08:40.239Z,16.84
2018-10-11T00:08:51.995Z,16.84
2018-10-11T00:09:04.683Z,16.85
2018-10-11T00:09:16.435Z,16.84
2018-10-11T00:09:28.194Z,16.85
2018-10-11T00:09:39.939Z,16.84
2018-10-11T00:09:51.873Z,16.84
2018-10-11T00:10:03.644Z,16.84
2018-10-11T00:10:15.408Z,16.84
2018-10-11T00:10:27.154Z,16.85
2018-10-11T00:10:38.908Z,16.85
2018-10-11T00:10:50.667Z,16.84
2018-10-11T00:11:02.431Z,16.86
2018-10-11T00:11:14.195Z,16.86
2018-10-11T00:11:25.960Z,16.84
2018-10-11T00:11:37.720Z,16.84
2018-10-11T00:11:49.488Z,16.84
2018-10-11T00:12:01.267Z,16.84
2018-10-11T00:12:13.052Z,16.84
2018-10-11T00:12:24.978Z,16.84
2018-10-11T00:12:36.964Z,16.84
2018-10-11T00:12:48.718Z,16.83
2018-10-11T00:13:00.476Z,16.84
2018-10-11T00:13:12.235Z,16.84
2018-10-11T00:13:23.995Z,16.84
2018-10-11T00:13:35.763Z,16.85
2018-10-11T00:13:47.517Z,16.84
2018-10-11T00:13:59.276Z,16.83
2018-10-11T00:14:11.016Z,16.85
2018-10-11T00:14:22.771Z,16.84
2018-10-11T00:14:34.540Z,16.85
2018-10-11T00:14:46.394Z,16.84
2018-10-11T00:14:58.135Z,16.83
2018-10-11T00:15:09.884Z,16.82
2018-10-11T00:15:21.644Z,16.83
2018-10-11T00:15:33.386Z,16.83
2018-10-11T00:15:45.144Z,16.83
2018-10-11T00:15:56.904Z,16.84
2018-10-11T00:16:08.667Z,16.84
2018-10-11T00:16:20.425Z,16.84
2018-10-11T00:16:32.181Z,16.83
2018-10-11T00:16:43.949Z,16.84
2018-10-11T00:16:55.701Z,16.84
2018-10-11T00:17:07.484Z,16.84
2018-10-11T00:17:19.253Z,16.84
2018-10-11T00:17:31.002Z,16.84
2018-10-11T00:17:42.758Z,16.83
2018-10-11T00:17:54.528Z,16.83
2018-10-11T00:18:06.271Z,16.83
2018-10-11T00:18:18.010Z,16.84
2018-10-11T00:18:29.767Z,16.83
2018-10-11T00:18:41.576Z,16.83
2018-10-11T00:18:53.320Z,16.83
2018-10-11T00:19:05.101Z,16.82
2018-10-11T00:19:16.847Z,16.83
2018-10-11T00:19:28.614Z,16.82
2018-10-11T00:19:40.360Z,16.83
2018-10-11T00:19:52.168Z,16.83
2018-10-11T00:20:03.943Z,16.82
2018-10-11T00:20:15.705Z,16.84
2018-10-11T00:20:27.447Z,16.82
2018-10-11T00:20:39.215Z,16.83
2018-10-11T00:20:50.971Z,16.83
2018-10-11T00:21:02.734Z,16.83
2018-10-11T00:21:14.493Z,16.82
2018-10-11T00:21:26.248Z,16.83
2018-10-11T00:21:38.665Z,16.83
2018-10-11T00:21:50.437Z,16.83
2018-10-11T00:22:02.196Z,16.82
2018-10-11T00:22:13.974Z,16.83
2018-10-11T00:22:25.851Z,16.83
2018-10-11T00:22:37.612Z,16.83
2018-10-11T00:22:49.362Z,16.83
2018-10-11T00:23:01.122Z,16.84
2018-10-11T00:23:12.873Z,16.83
2018-10-11T00:23:24.617Z,16.83
2018-10-11T00:23:36.715Z,16.82
2018-10-11T00:23:48.469Z,16.82
2018-10-11T00:24:00.211Z,16.82
2018-10-11T00:24:11.973Z,16.83
2018-10-11T00:24:23.729Z,16.82
2018-10-11T00:24:35.485Z,16.82
2018-10-11T00:24:47.248Z,16.83
2018-10-11T00:24:59.008Z,16.83
2018-10-11T00:25:10.763Z,16.83
2018-10-11T00:25:22.703Z,16.82
2018-10-11T00:25:34.450Z,16.83
2018-10-11T00:25:46.190Z,16.82
2018-10-11T00:25:57.942Z,16.82
2018-10-11T00:26:09.698Z,16.83
2018-10-11T00:26:21.448Z,16.82
2018-10-11T00:26:33.211Z,16.82
2018-10-11T00:26:44.968Z,16.82
2018-10-11T00:26:56.778Z,16.83
2018-10-11T00:27:08.682Z,16.83
2018-10-11T00:27:20.484Z,16.82
2018-10-11T00:27:32.320Z,16.83
2018-10-11T00:27:44.080Z,16.82
2018-10-11T00:27:55.822Z,16.83
2018-10-11T00:28:07.578Z,16.83
2018-10-11T00:28:19.333Z,16.82
2018-10-11T00:28:31.086Z,16.82
2018-10-11T00:28:42.838Z,16.82
2018-10-11T00:28:54.613Z,16.82
2018-10-11T00:29:06.380Z,16.81
2018-10-11T00:29:18.160Z,16.82
2018-10-11T00:29:29.926Z,16.82
2018-10-11T00:29:41.689Z,16.81
2018-10-11T00:29:53.438Z,16.81
2018-10-11T00:30:05.187Z,16.82
2018-10-11T00:30:16.956Z,16.82
2018-10-11T00:30:28.760Z,16.81
2018-10-11T00:30:40.509Z,16.82
2018-10-11T00:30:52.333Z,16.81
2018-10-11T00:31:04.089Z,16.82
2018-10-11T00:31:15.825Z,16.83
2018-10-11T00:31:27.587Z,16.81
2018-10-11T00:31:39.347Z,16.82
2018-10-11T00:31:51.119Z,16.81
2018-10-11T00:32:02.900Z,16.81
2018-10-11T00:32:14.647Z,16.82
2018-10-11T00:32:26.571Z,16.82
2018-10-11T00:32:38.326Z,16.81
2018-10-11T00:32:50.093Z,16.81
2018-10-11T00:33:01.860Z,16.82
2018-10-11T00:33:13.621Z,16.81
2018-10-11T00:33:25.434Z,16.82
2018-10-11T00:33:37.193Z,16.81
2018-10-11T00:33:49.936Z,16.83
2018-10-11T00:34:01.689Z,16.82
2018-10-11T00:34:13.445Z,16.80
2018-10-11T00:34:25.206Z,16.81
2018-10-11T00:34:36.955Z,16.81
2018-10-11T00:34:48.726Z,16.81
2018-10-11T00:35:00.482Z,16.81
2018-10-11T00:35:12.231Z,16.82
2018-10-11T00:35:23.984Z,16.81
2018-10-11T00:35:35.732Z,16.82
2018-10-11T00:35:47.473Z,16.82
2018-10-11T00:35:59.218Z,16.82
2018-10-11T00:36:10.977Z,16.80
2018-10-11T00:36:22.745Z,16.82
2018-10-11T00:36:34.503Z,16.81
2018-10-11T00:36:46.245Z,16.82
2018-10-11T00:36:58.005Z,16.82
2018-10-11T00:37:09.770Z,16.82
2018-10-11T00:37:21.536Z,16.82
2018-10-11T00:37:33.330Z,16.82
2018-10-11T00:37:45.094Z,16.81
2018-10-11T00:37:56.864Z,16.84
2018-10-11T00:38:08.611Z,16.82
2018-10-11T00:38:20.394Z,16.82
2018-10-11T00:38:32.157Z,16.82
2018-10-11T00:38:43.927Z,16.81
2018-10-11T00:38:55.696Z,16.82
2018-10-11T00:39:07.864Z,16.82
2018-10-11T00:39:19.614Z,16.83
2018-10-11T00:39:31.371Z,16.81
2018-10-11T00:39:43.130Z,16.82
2018-10-11T00:39:54.915Z,16.82
2018-10-11T00:40:06.826Z,16.82
2018-10-11T00:40:18.595Z,16.81
2018-10-11T00:40:30.348Z,16.82
2018-10-11T00:40:42.728Z,16.82
2018-10-11T00:40:54.492Z,16.82
2018-10-11T00:41:06.254Z,16.82
2018-10-11T00:41:17.995Z,16.83
2018-10-11T00:41:29.749Z,16.82
2018-10-11T00:41:41.568Z,16.82
2018-10-11T00:41:53.322Z,16.82
2018-10-11T00:42:05.096Z,16.82
2018-10-11T00:42:16.868Z,16.81
2018-10-11T00:42:28.646Z,16.82
2018-10-11T00:42:40.562Z,16.81
2018-10-11T00:42:52.321Z,16.82
2018-10-11T00:43:04.098Z,16.82
2018-10-11T00:43:15.857Z,16.83
2018-10-11T00:43:27.613Z,16.82
2018-10-11T00:43:39.372Z,16.83
2018-10-11T00:43:51.134Z,16.82
2018-10-11T00:44:02.912Z,16.82
2018-10-11T00:44:16.323Z,16.82
2018-10-11T00:44:28.070Z,16.82
2018-10-11T00:44:39.832Z,16.81
2018-10-11T00:44:51.584Z,16.81
2018-10-11T00:45:03.356Z,16.81
2018-10-11T00:45:15.120Z,16.82
2018-10-11T00:45:26.867Z,16.82
2018-10-11T00:45:38.626Z,16.81
2018-10-11T00:45:50.384Z,16.81
2018-10-11T00:46:02.143Z,16.82
2018-10-11T00:46:13.889Z,16.81
2018-10-11T00:46:25.642Z,16.82
2018-10-11T00:46:37.395Z,16.81
2018-10-11T00:46:49.152Z,16.81
2018-10-11T00:47:00.928Z,16.82
2018-10-11T00:47:12.684Z,16.83
2018-10-11T00:47:24.439Z,16.81
2018-10-11T00:47:36.217Z,16.82
2018-10-11T00:47:47.994Z,16.81
2018-10-11T00:47:59.741Z,16.82
2018-10-11T00:48:11.496Z,16.81
2018-10-11T00:48:23.255Z,16.81
2018-10-11T00:48:35.006Z,16.81
2018-10-11T00:48:46.773Z,16.82
2018-10-11T00:48:58.515Z,16.81
2018-10-11T00:49:10.264Z,16.81
2018-10-11T00:49:22.079Z,16.81
2018-10-11T00:49:33.885Z,16.82
2018-10-11T00:49:45.599Z,16.81
2018-10-11T00:49:57.388Z,16.81
2018-10-11T00:50:09.128Z,16.81
2018-10-11T00:50:20.893Z,16.80
2018-10-11T00:50:32.653Z,16.80
2018-10-11T00:50:44.420Z,16.80
2018-10-11T00:50:56.189Z,16.81
2018-10-11T00:51:07.931Z,16.81
2018-10-11T00:51:19.683Z,16.81
2018-10-11T00:51:31.426Z,16.81
2018-10-11T00:51:43.191Z,16.82
2018-10-11T00:51:54.948Z,16.82
2018-10-11T00:52:06.704Z,16.81
2018-10-11T00:52:18.445Z,16.81
2018-10-11T00:52:30.197Z,16.81
2018-10-11T00:52:41.946Z,16.81
2018-10-11T00:52:53.737Z,16.81
2018-10-11T00:53:05.517Z,16.80
2018-10-11T00:53:17.277Z,16.81
2018-10-11T00:53:29.018Z,16.80
2018-10-11T00:53:40.777Z,16.81
2018-10-11T00:53:52.546Z,16.82
2018-10-11T00:54:04.299Z,16.82
2018-10-11T00:54:16.056Z,16.80
2018-10-11T00:54:27.813Z,16.81
2018-10-11T00:54:39.568Z,16.81
2018-10-11T00:54:51.326Z,16.81
2018-10-11T00:55:03.070Z,16.81
2018-10-11T00:55:14.814Z,16.81
2018-10-11T00:55:26.554Z,16.81
2018-10-11T00:55:38.313Z,16.80
2018-10-11T00:55:50.061Z,16.81
2018-10-11T00:56:01.820Z,16.81
2018-10-11T00:56:13.583Z,16.80
2018-10-11T00:56:25.344Z,16.80
2018-10-11T00:56:37.097Z,16.80
2018-10-11T00:56:48.856Z,16.80
2018-10-11T00:57:00.630Z,16.81
2018-10-11T00:57:12.396Z,16.81
2018-10-11T00:57:24.167Z,16.81
2018-10-11T00:57:35.924Z,16.81
2018-10-11T00:57:48.540Z,16.81
2018-10-11T00:58:00.328Z,16.81
2018-10-11T00:58:12.091Z,16.82
2018-10-11T00:58:23.838Z,16.81
2018-10-11T00:58:35.616Z,16.81
2018-10-11T00:58:47.377Z,16.81
2018-10-11T00:58:59.136Z,16.82
2018-10-11T00:59:11.667Z,16.81
2018-10-11T00:59:23.424Z,16.82
2018-10-11T00:59:35.190Z,16.82
2018-10-11T00:59:46.953Z,16.80
2018-10-11T00:59:58.716Z,16.81
2018-10-11T01:00:10.488Z,16.80
2018-10-11T01:00:22.286Z,16.80
2018-10-11T01:00:34.047Z,16.80
2018-10-11T01:00:45.806Z,16.80
2018-10-11T01:00:57.552Z,16.80
2018-10-11T01:01:09.295Z,16.81
2018-10-11T01:01:21.227Z,16.80
2018-10-11T01:01:32.967Z,16.81
2018-10-11T01:01:44.732Z,16.81
2018-10-11T01:01:56.504Z,16.80
2018-10-11T01:02:08.273Z,16.79
2018-10-11T01:02:20.032Z,16.80
2018-10-11T01:02:31.780Z,16.81
2018-10-11T01:02:43.527Z,16.81
2018-10-11T01:02:55.293Z,16.81
2018-10-11T01:03:07.072Z,16.82
2018-10-11T01:03:18.823Z,16.81
2018-10-11T01:03:30.574Z,16.81
2018-10-11T01:03:42.352Z,16.81
2018-10-11T01:03:54.107Z,16.81
2018-10-11T01:04:05.874Z,16.80
2018-10-11T01:04:17.619Z,16.81
2018-10-11T01:04:29.359Z,16.81
2018-10-11T01:04:41.122Z,16.81
2018-10-11T01:04:52.875Z,16.80
2018-10-11T01:05:04.635Z,16.81
2018-10-11T01:05:16.393Z,16.81
2018-10-11T01:05:28.150Z,16.81
2018-10-11T01:05:39.899Z,16.81
2018-10-11T01:05:51.663Z,16.81
2018-10-11T01:06:03.415Z,16.80
2018-10-11T01:06:15.173Z,16.81
2018-10-11T01:06:26.948Z,16.80
2018-10-11T01:06:38.706Z,16.80
2018-10-11T01:06:50.462Z,16.81
2018-10-11T01:07:02.228Z,16.81
2018-10-11T01:07:14.000Z,16.81
2018-10-11T01:07:25.757Z,16.80
2018-10-11T01:07:37.507Z,16.81
2018-10-11T01:07:49.246Z,16.80
2018-10-11T01:08:00.999Z,16.80
2018-10-11T01:08:12.795Z,16.80
2018-10-11T01:08:24.554Z,16.80
2018-10-11T01:08:36.308Z,16.81
2018-10-11T01:08:48.069Z,16.80
2018-10-11T01:08:59.824Z,16.81
2018-10-11T01:09:12.475Z,16.80
2018-10-11T01:09:24.281Z,16.80
2018-10-11T01:09:36.011Z,16.81
2018-10-11T01:09:47.811Z,16.80
2018-10-11T01:09:59.592Z,16.81
2018-10-11T01:10:11.321Z,16.81
2018-10-11T01:10:24.516Z,16.80
2018-10-11T01:10:36.267Z,16.82
2018-10-11T01:10:48.032Z,16.81
2018-10-11T01:10:59.808Z,16.81
2018-10-11T01:11:11.562Z,16.81
2018-10-11T01:11:23.321Z,16.80
2018-10-11T01:11:35.115Z,16.80
2018-10-11T01:11:46.859Z,16.80
2018-10-11T01:11:58.613Z,16.81
2018-10-11T01:12:10.412Z,16.81
2018-10-11T01:12:22.161Z,16.80
2018-10-11T01:12:33.934Z,16.81
2018-10-11T01:12:45.680Z,16.80
2018-10-11T01:12:57.559Z,16.80
2018-10-11T01:13:09.322Z,16.81
2018-10-11T01:13:21.112Z,16.81
2018-10-11T01:13:33.031Z,16.81
2018-10-11T01:13:44.781Z,16.81
2018-10-11T01:13:56.529Z,16.80
2018-10-11T01:14:08.822Z,16.80
2018-10-11T01:14:20.587Z,16.80
2018-10-11T01:14:32.363Z,16.80
2018-10-11T01:14:44.114Z,16.80
2018-10-11T01:14:55.874Z,16.81
2018-10-11T01:15:07.639Z,16.81
2018-10-11T01:15:19.390Z,16.81
2018-10-11T01:15:31.136Z,16.80
2018-10-11T01:15:42.887Z,16.81
2018-10-11T01:15:54.630Z,16.81
2018-10-11T01:16:06.387Z,16.81
2018-10-11T01:16:18.151Z,16.80
2018-10-11T01:16:29.905Z,16.80
2018-10-11T01:16:41.665Z,16.82
2018-10-11T01:16:53.423Z,16.81
2018-10-11T01:17:05.176Z,16.80
2018-10-11T01:17:16.918Z,16.80
2018-10-11T01:17:28.666Z,16.81
2018-10-11T01:17:40.583Z,16.80
2018-10-11T01:17:52.332Z,16.80
2018-10-11T01:18:04.082Z,16.80
2018-10-11T01:18:15.850Z,16.80
2018-10-11T01:18:27.627Z,16.80
2018-10-11T01:18:39.387Z,16.81
2018-10-11T01:18:51.144Z,16.80
2018-10-11T01:19:02.895Z,16.80
2018-10-11T01:19:14.669Z,16.80
2018-10-11T01:19:26.440Z,16.81
2018-10-11T01:19:38.196Z,16.80
2018-10-11T01:19:49.976Z,16.80
2018-10-11T01:20:01.740Z,16.80
2018-10-11T01:20:13.496Z,16.80
2018-10-11T01:20:25.294Z,16.80
2018-10-11T01:20:37.061Z,16.80
2018-10-11T01:20:48.820Z,16.80
2018-10-11T01:21:00.650Z,16.80
2018-10-11T01:21:12.419Z,16.80
2018-10-11T01:21:24.177Z,16.81
2018-10-11T01:21:35.936Z,16.80
2018-10-11T01:21:47.689Z,16.80
2018-10-11T01:21:59.453Z,16.80
2018-10-11T01:22:11.220Z,16.81
2018-10-11T01:22:22.959Z,16.80
2018-10-11T01:22:34.715Z,16.80
2018-10-11T01:22:46.468Z,16.81
2018-10-11T01:22:58.207Z,16.80
2018-10-11T01:23:09.963Z,16.81
2018-10-11T01:23:21.772Z,16.79
2018-10-11T01:23:33.549Z,16.81
2018-10-11T01:23:45.325Z,16.80
2018-10-11T01:23:57.170Z,16.80
2018-10-11T01:24:09.070Z,16.80
2018-10-11T01:24:20.827Z,16.81
2018-10-11T01:24:32.579Z,16.80
2018-10-11T01:24:44.338Z,16.80
2018-10-11T01:24:56.083Z,16.80
2018-10-11T01:25:07.844Z,16.79
2018-10-11T01:25:19.603Z,16.80
2018-10-11T01:25:31.360Z,16.80
2018-10-11T01:25:43.117Z,16.80
2018-10-11T01:25:55.166Z,16.80
2018-10-11T01:26:06.931Z,16.80
2018-10-11T01:26:18.698Z,16.79
2018-10-11T01:26:30.454Z,16.79
2018-10-11T01:26:42.211Z,16.79
2018-10-11T01:26:53.957Z,16.80
2018-10-11T01:27:05.701Z,16.79
2018-10-11T01:27:17.462Z,16.80
2018-10-11T01:27:29.218Z,16.79
2018-10-11T01:27:40.964Z,16.79
2018-10-11T01:27:52.711Z,16.79
2018-10-11T01:28:04.453Z,16.79
2018-10-11T01:28:16.215Z,16.78
2018-10-11T01:28:28.000Z,16.79
2018-10-11T01:28:39.777Z,16.79
2018-10-11T01:28:51.523Z,16.79
2018-10-11T01:29:03.464Z,16.79
2018-10-11T01:29:15.222Z,16.79
2018-10-11T01:29:27.005Z,16.79
2018-10-11T01:29:38.899Z,16.80
2018-10-11T01:29:50.650Z,16.80
2018-10-11T01:30:02.435Z,16.79
2018-10-11T01:30:14.216Z,16.80
2018-10-11T01:30:26.240Z,16.79
2018-10-11T01:30:42.249Z,16.79
2018-10-11T01:30:59.510Z,16.79
2018-10-11T01:31:16.850Z,16.79
2018-10-11T01:31:28.603Z,16.79
2018-10-11T01:31:40.347Z,16.79
2018-10-11T01:31:52.099Z,16.80
2018-10-11T01:32:03.868Z,16.80
2018-10-11T01:32:15.638Z,16.80
2018-10-11T01:32:27.395Z,16.80
2018-10-11T01:32:39.164Z,16.81
2018-10-11T01:32:50.904Z,16.80
2018-10-11T01:33:02.654Z,16.80
2018-10-11T01:33:14.408Z,16.81
2018-10-11T01:33:26.260Z,16.80
2018-10-11T01:33:38.139Z,16.80
2018-10-11T01:33:50.208Z,16.80
2018-10-11T01:34:01.950Z,16.80
2018-10-11T01:34:13.707Z,16.80
2018-10-11T01:34:25.489Z,16.80
2018-10-11T01:34:37.253Z,16.80
2018-10-11T01:34:49.025Z,16.79
2018-10-11T01:35:00.775Z,16.79
2018-10-11T01:35:12.519Z,16.80
2018-10-11T01:35:24.510Z,16.79
2018-10-11T01:35:36.281Z,16.80
2018-10-11T01:35:48.044Z,16.79
2018-10-11T01:35:59.804Z,16.79
2018-10-11T01:36:11.557Z,16.79
2018-10-11T01:36:23.317Z,16.79
2018-10-11T01:36:35.096Z,16.80
2018-10-11T01:36:46.837Z,16.79
2018-10-11T01:36:58.593Z,16.79
2018-10-11T01:37:10.354Z,16.79
2018-10-11T01:37:22.127Z,16.79
2018-10-11T01:37:33.886Z,16.80
2018-10-11T01:37:45.643Z,16.80
2018-10-11T01:37:57.421Z,16.79
2018-10-11T01:38:09.171Z,16.79
2018-10-11T01:38:20.927Z,16.79
2018-10-11T01:38:32.701Z,16.79
2018-10-11T01:38:44.489Z,16.80
2018-10-11T01:38:56.261Z,16.79
2018-10-11T01:39:08.016Z,16.79
2018-10-11T01:39:19.774Z,16.79
2018-10-11T01:39:31.530Z,16.80
2018-10-11T01:39:43.310Z,16.79
2018-10-11T01:39:55.119Z,16.79
2018-10-11T01:40:06.883Z,16.79
2018-10-11T01:40:18.652Z,16.79
2018-10-11T01:40:30.408Z,16.79
2018-10-11T01:40:42.181Z,16.79
2018-10-11T01:40:53.936Z,16.79
2018-10-11T01:41:05.697Z,16.79
2018-10-11T01:41:17.458Z,16.79
2018-10-11T01:41:29.222Z,16.79
2018-10-11T01:41:40.977Z,16.79
2018-10-11T01:41:52.736Z,16.80
2018-10-11T01:42:04.478Z,16.79
2018-10-11T01:42:16.245Z,16.79
2018-10-11T01:42:27.978Z,16.79
2018-10-11T01:42:39.737Z,16.80
2018-10-11T01:42:51.478Z,16.79
2018-10-11T01:43:05.542Z,16.80
2018-10-11T01:43:17.294Z,16.80
2018-10-11T01:43:29.055Z,16.80
2018-10-11T01:43:40.818Z,16.79
2018-10-11T01:43:52.763Z,16.80
2018-10-11T01:44:04.502Z,16.79
2018-10-11T01:44:16.264Z,16.79
2018-10-11T01:44:28.019Z,16.79
2018-10-11T01:44:39.926Z,16.79
2018-10-11T01:44:51.688Z,16.79
2018-10-11T01:45:03.443Z,16.79
2018-10-11T01:45:15.200Z,16.79
2018-10-11T01:45:26.944Z,16.79
2018-10-11T01:45:38.707Z,16.79
2018-10-11T01:45:50.460Z,16.79
2018-10-11T01:46:02.214Z,16.79
2018-10-11T01:46:13.973Z,16.79
2018-10-11T01:46:25.725Z,16.78
2018-10-11T01:46:37.483Z,16.79
2018-10-11T01:46:49.239Z,16.80
2018-10-11T01:47:00.988Z,16.78
2018-10-11T01:47:12.720Z,16.79
2018-10-11T01:47:24.466Z,16.78
2018-10-11T01:47:36.232Z,16.78
2018-10-11T01:47:47.978Z,16.79
2018-10-11T01:47:59.723Z,16.79
2018-10-11T01:48:11.480Z,16.79
2018-10-11T01:48:23.226Z,16.78
2018-10-11T01:48:34.975Z,16.79
2018-10-11T01:48:46.741Z,16.78
2018-10-11T01:48:58.517Z,16.78
2018-10-11T01:49:10.287Z,16.78
2018-10-11T01:49:22.046Z,16.78
2018-10-11T01:49:33.847Z,16.78
2018-10-11T01:49:45.619Z,16.78
2018-10-11T01:49:57.416Z,16.78
2018-10-11T01:50:09.172Z,16.78
2018-10-11T01:50:20.951Z,16.78
2018-10-11T01:50:32.707Z,16.78
2018-10-11T01:50:44.454Z,16.78
2018-10-11T01:50:56.202Z,16.78
2018-10-11T01:51:08.165Z,16.79
2018-10-11T01:51:19.929Z,16.78
2018-10-11T01:51:31.705Z,16.79
2018-10-11T01:51:43.465Z,16.79
2018-10-11T01:51:55.214Z,16.79
2018-10-11T01:52:06.973Z,16.79
2018-10-11T01:52:18.728Z,16.78
2018-10-11T01:52:30.470Z,16.78
2018-10-11T01:52:42.236Z,16.78
2018-10-11T01:52:54.422Z,16.79
2018-10-11T01:53:06.561Z,16.79
2018-10-11T01:53:18.333Z,16.79
2018-10-11T01:53:30.097Z,16.78
2018-10-11T01:53:41.864Z,16.78
2018-10-11T01:53:53.620Z,16.78
2018-10-11T01:54:05.393Z,16.78
2018-10-11T01:54:17.139Z,16.78
2018-10-11T01:54:28.898Z,16.78
2018-10-11T01:54:40.658Z,16.78
2018-10-11T01:54:52.415Z,16.78
2018-10-11T01:55:04.167Z,16.78
2018-10-11T01:55:15.924Z,16.78
2018-10-11T01:55:28.746Z,16.79
2018-10-11T01:55:40.494Z,16.79
2018-10-11T01:55:52.261Z,16.78
2018-10-11T01:56:04.035Z,16.79
2018-10-11T01:56:15.804Z,16.78
2018-10-11T01:56:27.939Z,16.78
2018-10-11T01:56:39.717Z,16.78
2018-10-11T01:56:51.484Z,16.79
2018-10-11T01:57:03.214Z,16.79
2018-10-11T01:57:14.983Z,16.78
2018-10-11T01:57:26.725Z,16.78
2018-10-11T01:57:38.470Z,16.78
2018-10-11T01:57:50.226Z,16.78
2018-10-11T01:58:02.007Z,16.76
2018-10-11T01:58:13.758Z,16.78
2018-10-11T01:58:25.513Z,16.79
2018-10-11T01:58:37.264Z,16.79
2018-10-11T01:58:49.034Z,16.79
2018-10-11T01:59:00.769Z,16.78
2018-10-11T01:59:12.543Z,16.78
2018-10-11T01:59:24.291Z,16.78
2018-10-11T01:59:36.040Z,16.78
2018-10-11T01:59:47.796Z,16.78
2018-10-11T01:59:59.548Z,16.79
2018-10-11T02:00:11.312Z,16.78
2018-10-11T02:00:23.255Z,16.79
2018-10-11T02:00:35.011Z,16.78
2018-10-11T02:00:46.777Z,16.79
2018-10-11T02:00:58.686Z,16.78
2018-10-11T02:01:10.461Z,16.79
2018-10-11T02:01:22.224Z,16.78
2018-10-11T02:01:33.964Z,16.78
2018-10-11T02:01:45.721Z,16.79
2018-10-11T02:01:57.483Z,16.78
2018-10-11T02:02:09.448Z,16.78
2018-10-11T02:02:21.211Z,16.79
2018-10-11T02:02:32.967Z,16.79
2018-10-11T02:02:44.721Z,16.78
2018-10-11T02:02:57.983Z,16.78
2018-10-11T02:03:09.743Z,16.79
2018-10-11T02:03:21.495Z,16.78
2018-10-11T02:03:33.233Z,16.77
2018-10-11T02:03:44.984Z,16.78
2018-10-11T02:03:56.764Z,16.78
2018-10-11T02:04:08.528Z,16.78
2018-10-11T02:04:20.307Z,16.78
2018-10-11T02:04:32.054Z,16.78
2018-10-11T02:04:43.808Z,16.77
2018-10-11T02:04:55.599Z,16.79
2018-10-11T02:05:07.353Z,16.78
2018-10-11T02:05:19.105Z,16.78
2018-10-11T02:05:30.858Z,16.79
2018-10-11T02:05:42.609Z,16.78
2018-10-11T02:05:54.372Z,16.79
2018-10-11T02:06:06.137Z,16.78
2018-10-11T02:06:17.902Z,16.79
2018-10-11T02:06:29.655Z,16.78
2018-10-11T02:06:41.405Z,16.78
2018-10-11T02:06:53.156Z,16.77
2018-10-11T02:07:04.916Z,16.78
2018-10-11T02:07:16.660Z,16.78
2018-10-11T02:07:28.411Z,16.78
2018-10-11T02:07:40.182Z,16.78
2018-10-11T02:07:51.967Z,16.79
2018-10-11T02:08:03.715Z,16.78
2018-10-11T02:08:15.488Z,16.79
2018-10-11T02:08:27.239Z,16.78
2018-10-11T02:08:38.996Z,16.78
2018-10-11T02:08:50.749Z,16.78
2018-10-11T02:09:02.520Z,16.79
2018-10-11T02:09:14.276Z,16.79
2018-10-11T02:09:26.123Z,16.78
2018-10-11T02:09:37.909Z,16.78
2018-10-11T02:09:49.615Z,16.78
2018-10-11T02:10:01.372Z,16.78
2018-10-11T02:10:13.156Z,16.78
2018-10-11T02:10:25.596Z,16.77
2018-10-11T02:10:37.363Z,16.78
2018-10-11T02:10:49.120Z,16.78
2018-10-11T02:11:00.872Z,16.79
2018-10-11T02:11:12.611Z,16.78
2018-10-11T02:11:24.371Z,16.79
2018-10-11T02:11:36.123Z,16.79
2018-10-11T02:11:47.878Z,16.79
2018-10-11T02:11:59.636Z,16.78
2018-10-11T02:12:11.402Z,16.79
2018-10-11T02:12:23.238Z,16.78
2018-10-11T02:12:34.983Z,16.79
2018-10-11T02:12:46.737Z,16.78
2018-10-11T02:12:58.992Z,16.78
2018-10-11T02:13:10.750Z,16.78
2018-10-11T02:13:22.507Z,16.78
2018-10-11T02:13:34.254Z,16.78
2018-10-11T02:13:46.023Z,16.79
2018-10-11T02:13:57.856Z,16.78
2018-10-11T02:14:09.595Z,16.76
2018-10-11T02:14:21.339Z,16.78
2018-10-11T02:14:33.121Z,16.79
2018-10-11T02:14:44.888Z,16.78
2018-10-11T02:14:56.650Z,16.79
2018-10-11T02:15:08.447Z,16.78
2018-10-11T02:15:20.198Z,16.78
2018-10-11T02:15:31.958Z,16.78
2018-10-11T02:15:43.706Z,16.78
2018-10-11T02:15:55.469Z,16.79
2018-10-11T02:16:07.211Z,16.78
2018-10-11T02:16:18.950Z,16.79
2018-10-11T02:16:30.748Z,16.79
2018-10-11T02:16:42.508Z,16.79
2018-10-11T02:16:54.307Z,16.79
2018-10-11T02:17:06.073Z,16.78
2018-10-11T02:17:17.840Z,16.79
2018-10-11T02:17:29.596Z,16.78
2018-10-11T02:17:41.364Z,16.78
2018-10-11T02:17:53.120Z,16.79
2018-10-11T02:18:04.865Z,16.79
2018-10-11T02:18:16.605Z,16.79
2018-10-11T02:18:28.380Z,16.79
2018-10-11T02:18:40.279Z,16.78
2018-10-11T02:18:52.025Z,16.78
2018-10-11T02:19:03.796Z,16.78
2018-10-11T02:19:15.571Z,16.79
2018-10-11T02:19:27.330Z,16.78
2018-10-11T02:19:39.154Z,16.79
2018-10-11T02:19:50.898Z,16.79
2018-10-11T02:20:02.654Z,16.78
2018-10-11T02:20:14.402Z,16.79
2018-10-11T02:20:26.688Z,16.78
2018-10-11T02:20:38.448Z,16.79
2018-10-11T02:20:50.210Z,16.78
2018-10-11T02:21:01.969Z,16.78
2018-10-11T02:21:13.723Z,16.78
2018-10-11T02:21:25.498Z,16.78
2018-10-11T02:21:37.254Z,16.77
2018-10-11T02:21:49.000Z,16.78
2018-10-11T02:22:00.762Z,16.78
2018-10-11T02:22:12.506Z,16.78
2018-10-11T02:22:24.285Z,16.78
2018-10-11T02:22:36.199Z,16.77
2018-10-11T02:22:47.995Z,16.78
2018-10-11T02:22:59.764Z,16.78
2018-10-11T02:23:11.529Z,16.78
2018-10-11T02:23:23.292Z,16.78
2018-10-11T02:23:35.089Z,16.78
2018-10-11T02:23:46.839Z,16.78
2018-10-11T02:23:58.602Z,16.77
2018-10-11T02:24:10.823Z,16.78
2018-10-11T02:24:22.564Z,16.77
2018-10-11T02:24:35.302Z,16.78
2018-10-11T02:24:47.075Z,16.77
2018-10-11T02:24:58.828Z,16.77
2018-10-11T02:25:11.277Z,16.77
2018-10-11T02:25:23.012Z,16.77
2018-10-11T02:25:34.763Z,16.78
2018-10-11T02:25:46.517Z,16.78
2018-10-11T02:25:58.295Z,16.78
2018-10-11T02:26:10.047Z,16.78
2018-10-11T02:26:21.803Z,16.77
2018-10-11T02:26:33.560Z,16.77
2018-10-11T02:26:45.325Z,16.78
2018-10-11T02:26:57.080Z,16.78
2018-10-11T02:27:08.829Z,16.78
2018-10-11T02:27:20.573Z,16.77
2018-10-11T02:27:32.332Z,16.78
2018-10-11T02:27:44.078Z,16.76
2018-10-11T02:27:55.821Z,16.77
2018-10-11T02:28:07.566Z,16.78
2018-10-11T02:28:19.313Z,16.79
2018-10-11T02:28:31.046Z,16.78
2018-10-11T02:28:42.795Z,16.78
2018-10-11T02:28:54.547Z,16.78
2018-10-11T02:29:06.345Z,16.78
2018-10-11T02:29:18.093Z,16.76
2018-10-11T02:29:29.862Z,16.77
2018-10-11T02:29:41.633Z,16.78
2018-10-11T02:29:53.416Z,16.77
2018-10-11T02:30:05.184Z,16.78
2018-10-11T02:30:16.937Z,16.78
2018-10-11T02:30:28.707Z,16.78
2018-10-11T02:30:40.481Z,16.78
2018-10-11T02:30:52.236Z,16.77
2018-10-11T02:31:03.979Z,16.78
2018-10-11T02:31:15.735Z,16.78
2018-10-11T02:31:27.499Z,16.78
2018-10-11T02:31:39.245Z,16.77
2018-10-11T02:31:51.005Z,16.77
2018-10-11T02:32:02.855Z,16.78